LAN455 SCEL-SABE
Flight info
| Callsign | LAN455 |
|---|---|
| Flight time | 1h 30m |
| Altitude | 37000 |
| Route | ALBAL7C ALBAL UM424 ASADA ASADA8Q |
| Aircraft | A320/M-SDE3FGHIRWY/LB1 |
Departure
| Time | 2026-04-30 18:15 |
|---|---|
| Airport | Comodoro Arturo Merino Benítez International Airport (SCEL) |
Arrival
| Time | 2026-04-30 19:46 |
|---|---|
| Airport | Aeroparque Jorge Newbery (SABE) |
| Time | Latitude | Longitude | Altitude | Speed | Heading |
|---|---|---|---|---|---|
| 2026-04-30 17:41 | -33.40068 | -70.79704 | 1595 ft | 0 kts | 355° |
| 2026-04-30 18:04 | -33.40126 | -70.79688 | 1576 ft | 4 kts | 322° |
| 2026-04-30 18:05 | -33.40138 | -70.79662 | 1576 ft | 1 kts | 267° |
| 2026-04-30 18:07 | -33.40138 | -70.79661 | 1576 ft | 0 kts | 267° |
| 2026-04-30 18:08 | -33.40140 | -70.79709 | 1577 ft | 5 kts | 267° |
| 2026-04-30 18:09 | -33.40071 | -70.80009 | 1578 ft | 15 kts | 348° |
| 2026-04-30 18:10 | -33.39484 | -70.80051 | 1577 ft | 26 kts | 351° |
| 2026-04-30 18:11 | -33.38722 | -70.80089 | 1577 ft | 29 kts | 358° |
| 2026-04-30 18:11 | -33.38094 | -70.80123 | 1579 ft | 30 kts | 356° |
| 2026-04-30 18:12 | -33.37486 | -70.80154 | 1577 ft | 26 kts | 358° |
| 2026-04-30 18:13 | -33.37147 | -70.80182 | 1578 ft | 21 kts | 335° |
| 2026-04-30 18:13 | -33.37108 | -70.80260 | 1581 ft | 8 kts | 285° |
| 2026-04-30 18:14 | -33.37198 | -70.80374 | 1582 ft | 11 kts | 178° |
| 2026-04-30 18:15 | -33.38738 | -70.80291 | 1584 ft | 147 kts | 178° |
| 2026-04-30 18:15 | -33.42405 | -70.80095 | 2409 ft | 201 kts | 180° |
| 2026-04-30 18:16 | -33.45534 | -70.79918 | 3088 ft | 248 kts | 180° |
| 2026-04-30 18:16 | -33.49182 | -70.79753 | 4422 ft | 270 kts | 177° |
| 2026-04-30 18:17 | -33.51065 | -70.79646 | 5193 ft | 278 kts | 177° |
| 2026-04-30 18:17 | -33.53023 | -70.79532 | 5990 ft | 286 kts | 177° |
| 2026-04-30 18:17 | -33.57060 | -70.79117 | 7518 ft | 297 kts | 174° |
| 2026-04-30 18:18 | -33.59138 | -70.78846 | 8252 ft | 303 kts | 174° |
| 2026-04-30 18:18 | -33.61250 | -70.78567 | 9001 ft | 308 kts | 175° |
| 2026-04-30 18:18 | -33.63399 | -70.78288 | 9711 ft | 314 kts | 175° |
| 2026-04-30 18:18 | -33.65604 | -70.78011 | 10229 ft | 326 kts | 175° |
| 2026-04-30 18:19 | -33.67938 | -70.77722 | 10406 ft | 349 kts | 175° |
| 2026-04-30 18:19 | -33.70408 | -70.77421 | 10765 ft | 362 kts | 176° |
| 2026-04-30 18:19 | -33.72930 | -70.77117 | 11375 ft | 367 kts | 176° |
| 2026-04-30 18:19 | -33.75484 | -70.76810 | 12032 ft | 371 kts | 176° |
| 2026-04-30 18:20 | -33.78060 | -70.76363 | 12685 ft | 376 kts | 167° |
| 2026-04-30 18:20 | -33.80515 | -70.75231 | 13322 ft | 381 kts | 152° |
| 2026-04-30 18:20 | -33.82693 | -70.73391 | 13928 ft | 385 kts | 136° |
| 2026-04-30 18:20 | -33.84425 | -70.70991 | 14482 ft | 386 kts | 122° |
| 2026-04-30 18:21 | -33.85682 | -70.68130 | 15022 ft | 388 kts | 112° |
| 2026-04-30 18:21 | -33.86812 | -70.65164 | 15572 ft | 392 kts | 112° |
| 2026-04-30 18:21 | -33.87955 | -70.62164 | 16132 ft | 395 kts | 113° |
| 2026-04-30 18:21 | -33.89110 | -70.59135 | 16693 ft | 399 kts | 113° |
| 2026-04-30 18:22 | -33.90275 | -70.56086 | 17241 ft | 403 kts | 113° |
| 2026-04-30 18:22 | -33.92641 | -70.49880 | 18367 ft | 411 kts | 114° |
| 2026-04-30 18:22 | -33.93334 | -70.48050 | 18660 ft | 414 kts | 113° |
| 2026-04-30 18:23 | -33.94517 | -70.44914 | 19149 ft | 418 kts | 114° |
| 2026-04-30 18:23 | -33.95730 | -70.41717 | 19670 ft | 422 kts | 114° |
| 2026-04-30 18:23 | -33.96956 | -70.38487 | 20125 ft | 425 kts | 114° |
| 2026-04-30 18:23 | -33.98190 | -70.35239 | 20627 ft | 429 kts | 115° |
| 2026-04-30 18:24 | -34.00704 | -70.28618 | 21569 ft | 438 kts | 115° |
| 2026-04-30 18:24 | -34.01976 | -70.25257 | 22000 ft | 442 kts | 115° |
| 2026-04-30 18:24 | -34.03259 | -70.21865 | 22523 ft | 445 kts | 115° |
| 2026-04-30 18:25 | -34.04548 | -70.18455 | 22938 ft | 449 kts | 115° |
| 2026-04-30 18:25 | -34.07144 | -70.11587 | 23899 ft | 455 kts | 116° |
| 2026-04-30 18:25 | -34.08458 | -70.08096 | 24237 ft | 459 kts | 115° |
| 2026-04-30 18:26 | -34.11115 | -70.01018 | 24936 ft | 466 kts | 115° |
| 2026-04-30 18:26 | -34.12448 | -69.97450 | 25317 ft | 469 kts | 115° |
| 2026-04-30 18:26 | -34.13790 | -69.93853 | 25690 ft | 471 kts | 115° |
| 2026-04-30 18:27 | -34.16492 | -69.86611 | 26424 ft | 475 kts | 115° |
| 2026-04-30 18:27 | -34.17798 | -69.82926 | 26790 ft | 477 kts | 110° |
| 2026-04-30 18:28 | -34.19252 | -69.75131 | 27445 ft | 481 kts | 98° |
| 2026-04-30 18:28 | -34.19793 | -69.71140 | 27770 ft | 483 kts | 98° |
| 2026-04-30 18:28 | -34.20899 | -69.63087 | 28424 ft | 488 kts | 98° |
| 2026-04-30 18:29 | -34.21456 | -69.59057 | 28787 ft | 488 kts | 98° |
| 2026-04-30 18:29 | -34.23134 | -69.46858 | 29825 ft | 492 kts | 98° |
| 2026-04-30 18:30 | -34.24060 | -69.40097 | 30459 ft | 489 kts | 98° |
| 2026-04-30 18:30 | -34.25335 | -69.30629 | 31381 ft | 485 kts | 98° |
| 2026-04-30 18:31 | -34.25872 | -69.26612 | 31787 ft | 484 kts | 98° |
| 2026-04-30 18:31 | -34.26949 | -69.18601 | 32597 ft | 481 kts | 97° |
| 2026-04-30 18:32 | -34.28009 | -69.10630 | 33408 ft | 479 kts | 97° |
| 2026-04-30 18:32 | -34.28532 | -69.06664 | 33801 ft | 478 kts | 97° |
| 2026-04-30 18:32 | -34.29576 | -68.98731 | 34417 ft | 477 kts | 97° |
| 2026-04-30 18:33 | -34.30096 | -68.94773 | 34684 ft | 477 kts | 97° |
| 2026-04-30 18:33 | -34.31642 | -68.82910 | 34779 ft | 478 kts | 97° |
| 2026-04-30 18:34 | -34.33175 | -68.70994 | 34775 ft | 478 kts | 97° |
| 2026-04-30 18:35 | -34.34198 | -68.63030 | 34789 ft | 479 kts | 96° |
| 2026-04-30 18:35 | -34.35218 | -68.55060 | 34798 ft | 479 kts | 96° |
| 2026-04-30 18:36 | -34.36735 | -68.43080 | 34805 ft | 480 kts | 96° |
| 2026-04-30 18:37 | -34.38244 | -68.31141 | 34804 ft | 481 kts | 96° |
| 2026-04-30 18:37 | -34.39249 | -68.23111 | 34806 ft | 482 kts | 96° |
| 2026-04-30 18:38 | -34.40246 | -68.15081 | 34791 ft | 482 kts | 96° |
| 2026-04-30 18:38 | -34.41235 | -68.07038 | 34782 ft | 483 kts | 96° |
| 2026-04-30 18:39 | -34.42222 | -67.98982 | 34775 ft | 484 kts | 96° |
| 2026-04-30 18:39 | -34.43213 | -67.90904 | 34773 ft | 485 kts | 96° |
| 2026-04-30 18:40 | -34.44192 | -67.82809 | 34776 ft | 485 kts | 96° |
| 2026-04-30 18:40 | -34.45150 | -67.74767 | 34773 ft | 486 kts | 95° |
| 2026-04-30 18:41 | -34.46096 | -67.66631 | 34774 ft | 487 kts | 95° |
| 2026-04-30 18:41 | -34.47035 | -67.58497 | 34774 ft | 487 kts | 95° |
| 2026-04-30 18:42 | -34.47964 | -67.50405 | 34773 ft | 488 kts | 95° |
| 2026-04-30 18:42 | -34.49359 | -67.38167 | 34780 ft | 488 kts | 95° |
| 2026-04-30 18:45 | -34.54245 | -66.94584 | 34778 ft | 490 kts | 95° |
| 2026-04-30 18:46 | -34.55138 | -66.86367 | 34778 ft | 491 kts | 95° |
| 2026-04-30 18:46 | -34.56031 | -66.78157 | 34783 ft | 491 kts | 95° |
| 2026-04-30 18:47 | -34.56918 | -66.69936 | 34782 ft | 492 kts | 95° |
| 2026-04-30 18:47 | -34.57803 | -66.61690 | 34784 ft | 492 kts | 95° |
| 2026-04-30 18:48 | -34.58683 | -66.53494 | 34791 ft | 492 kts | 95° |
| 2026-04-30 18:48 | -34.59557 | -66.45236 | 34791 ft | 493 kts | 95° |
| 2026-04-30 18:49 | -34.60427 | -66.36981 | 34790 ft | 493 kts | 95° |
| 2026-04-30 18:49 | -34.61298 | -66.28717 | 34791 ft | 494 kts | 95° |
| 2026-04-30 18:50 | -34.62161 | -66.20490 | 34792 ft | 494 kts | 95° |
| 2026-04-30 18:50 | -34.63022 | -66.12204 | 34789 ft | 494 kts | 95° |
| 2026-04-30 18:51 | -34.63867 | -66.03904 | 34790 ft | 494 kts | 95° |
| 2026-04-30 18:51 | -34.64704 | -65.95611 | 34796 ft | 495 kts | 95° |
| 2026-04-30 18:52 | -34.65538 | -65.87356 | 34801 ft | 495 kts | 95° |
| 2026-04-30 18:52 | -34.66372 | -65.79038 | 34793 ft | 496 kts | 95° |
| 2026-04-30 18:53 | -34.67206 | -65.70723 | 34792 ft | 496 kts | 95° |
| 2026-04-30 18:53 | -34.68033 | -65.62399 | 34790 ft | 496 kts | 95° |
| 2026-04-30 18:54 | -34.68852 | -65.54074 | 34795 ft | 496 kts | 95° |
| 2026-04-30 18:54 | -34.69665 | -65.45741 | 34796 ft | 497 kts | 95° |
| 2026-04-30 18:55 | -34.70472 | -65.37448 | 34795 ft | 497 kts | 95° |
| 2026-04-30 18:55 | -34.71675 | -65.24919 | 34798 ft | 497 kts | 94° |
| 2026-04-30 18:56 | -34.72868 | -65.12381 | 34804 ft | 497 kts | 95° |
| 2026-04-30 18:57 | -34.74048 | -64.99835 | 34806 ft | 498 kts | 94° |
| 2026-04-30 18:57 | -34.74822 | -64.91458 | 34800 ft | 498 kts | 94° |
| 2026-04-30 18:58 | -34.75975 | -64.78908 | 34805 ft | 498 kts | 94° |
| 2026-04-30 18:59 | -34.77125 | -64.66326 | 34802 ft | 499 kts | 94° |
| 2026-04-30 19:00 | -34.78654 | -64.49574 | 34805 ft | 499 kts | 94° |
| 2026-04-30 19:01 | -34.80169 | -64.32746 | 34820 ft | 500 kts | 94° |
| 2026-04-30 19:02 | -34.81287 | -64.20128 | 34821 ft | 500 kts | 94° |
| 2026-04-30 19:03 | -34.82751 | -64.03340 | 34828 ft | 500 kts | 94° |
| 2026-04-30 19:04 | -34.84207 | -63.86524 | 34835 ft | 501 kts | 94° |
| 2026-04-30 19:05 | -34.85644 | -63.69603 | 34839 ft | 501 kts | 94° |
| 2026-04-30 19:06 | -34.87032 | -63.52734 | 34846 ft | 502 kts | 94° |
| 2026-04-30 19:06 | -34.88088 | -63.40089 | 34851 ft | 502 kts | 94° |
| 2026-04-30 19:07 | -34.89131 | -63.27382 | 34854 ft | 502 kts | 94° |
| 2026-04-30 19:08 | -34.90482 | -63.10431 | 34861 ft | 503 kts | 94° |
| 2026-04-30 19:09 | -34.91499 | -62.97691 | 34865 ft | 503 kts | 94° |
| 2026-04-30 19:09 | -34.92161 | -62.89227 | 34871 ft | 503 kts | 94° |
| 2026-04-30 19:10 | -34.93470 | -62.72278 | 34871 ft | 504 kts | 94° |
| 2026-04-30 19:11 | -34.94439 | -62.59498 | 34878 ft | 504 kts | 94° |
| 2026-04-30 19:12 | -34.95075 | -62.50994 | 34883 ft | 504 kts | 94° |
| 2026-04-30 19:12 | -34.95693 | -62.42466 | 34884 ft | 504 kts | 93° |
| 2026-04-30 19:13 | -34.96858 | -62.25463 | 34889 ft | 504 kts | 91° |
| 2026-04-30 19:14 | -34.97132 | -62.16927 | 34892 ft | 503 kts | 89° |
| 2026-04-30 19:14 | -34.97312 | -62.08388 | 34890 ft | 504 kts | 90° |
| 2026-04-30 19:15 | -34.97545 | -61.99840 | 34898 ft | 504 kts | 90° |
| 2026-04-30 19:15 | -34.97974 | -61.87053 | 34897 ft | 504 kts | 90° |
| 2026-04-30 19:16 | -34.98251 | -61.78504 | 34903 ft | 504 kts | 90° |
| 2026-04-30 19:17 | -34.98623 | -61.65678 | 34899 ft | 504 kts | 90° |
| 2026-04-30 19:17 | -34.98975 | -61.52828 | 34908 ft | 505 kts | 90° |
| 2026-04-30 19:18 | -34.99313 | -61.40028 | 34912 ft | 505 kts | 90° |
| 2026-04-30 19:19 | -34.99534 | -61.31445 | 34912 ft | 505 kts | 90° |
| 2026-04-30 19:19 | -34.99855 | -61.18585 | 34915 ft | 506 kts | 90° |
| 2026-04-30 19:20 | -35.00052 | -61.09992 | 34914 ft | 506 kts | 90° |
| 2026-04-30 19:21 | -35.00336 | -60.97176 | 34921 ft | 506 kts | 89° |
| 2026-04-30 19:22 | -35.00709 | -60.80047 | 34235 ft | 496 kts | 90° |
| 2026-04-30 19:22 | -34.98966 | -60.68113 | 32102 ft | 471 kts | 69° |
| 2026-04-30 19:23 | -34.96193 | -60.56828 | 29938 ft | 456 kts | 68° |
| 2026-04-30 19:24 | -34.94374 | -60.49461 | 28953 ft | 451 kts | 68° |
| 2026-04-30 19:24 | -34.93473 | -60.45806 | 28561 ft | 448 kts | 68° |
| 2026-04-30 19:24 | -34.91693 | -60.38566 | 27803 ft | 443 kts | 68° |
| 2026-04-30 19:25 | -34.89046 | -60.27873 | 26717 ft | 436 kts | 68° |
| 2026-04-30 19:26 | -34.87312 | -60.20883 | 25999 ft | 431 kts | 68° |
| 2026-04-30 19:26 | -34.85585 | -60.13934 | 25262 ft | 426 kts | 68° |
| 2026-04-30 19:26 | -34.84732 | -60.10497 | 24784 ft | 421 kts | 68° |
| 2026-04-30 19:27 | -34.83297 | -60.04770 | 23389 ft | 424 kts | 68° |
| 2026-04-30 19:27 | -34.81620 | -59.98069 | 22194 ft | 406 kts | 68° |
| 2026-04-30 19:28 | -34.80804 | -59.94808 | 21526 ft | 400 kts | 68° |
| 2026-04-30 19:28 | -34.79200 | -59.88406 | 20406 ft | 391 kts | 68° |
| 2026-04-30 19:29 | -34.77634 | -59.82172 | 19741 ft | 384 kts | 68° |
| 2026-04-30 19:29 | -34.76850 | -59.79078 | 19393 ft | 381 kts | 68° |
| 2026-04-30 19:30 | -34.74540 | -59.69972 | 18381 ft | 371 kts | 69° |
| 2026-04-30 19:30 | -34.73038 | -59.64049 | 17061 ft | 363 kts | 69° |
| 2026-04-30 19:31 | -34.71569 | -59.58260 | 15813 ft | 354 kts | 69° |
| 2026-04-30 19:31 | -34.70844 | -59.55417 | 15202 ft | 349 kts | 69° |
| 2026-04-30 19:31 | -34.69418 | -59.49839 | 14032 ft | 341 kts | 69° |
| 2026-04-30 19:32 | -34.68715 | -59.47105 | 13432 ft | 338 kts | 69° |
| 2026-04-30 19:32 | -34.68016 | -59.44382 | 13095 ft | 335 kts | 69° |
| 2026-04-30 19:32 | -34.67326 | -59.41685 | 12777 ft | 332 kts | 69° |
| 2026-04-30 19:32 | -34.66651 | -59.39042 | 12455 ft | 330 kts | 69° |
| 2026-04-30 19:33 | -34.65975 | -59.36396 | 12130 ft | 327 kts | 69° |
| 2026-04-30 19:33 | -34.65302 | -59.33761 | 11812 ft | 325 kts | 69° |
| 2026-04-30 19:33 | -34.64632 | -59.31146 | 11497 ft | 322 kts | 69° |
| 2026-04-30 19:33 | -34.63967 | -59.28555 | 11185 ft | 320 kts | 69° |
| 2026-04-30 19:34 | -34.63305 | -59.25990 | 10888 ft | 317 kts | 69° |
| 2026-04-30 19:34 | -34.62644 | -59.23442 | 10583 ft | 315 kts | 69° |
| 2026-04-30 19:34 | -34.61338 | -59.18393 | 10003 ft | 310 kts | 69° |
| 2026-04-30 19:35 | -34.60698 | -59.15915 | 9775 ft | 305 kts | 68° |
| 2026-04-30 19:35 | -34.60068 | -59.13476 | 9497 ft | 302 kts | 69° |
| 2026-04-30 19:35 | -34.59450 | -59.11084 | 9190 ft | 300 kts | 69° |
| 2026-04-30 19:35 | -34.58828 | -59.08679 | 8901 ft | 297 kts | 69° |
| 2026-04-30 19:36 | -34.58210 | -59.06288 | 8586 ft | 295 kts | 69° |
| 2026-04-30 19:36 | -34.57595 | -59.03922 | 8292 ft | 293 kts | 69° |
| 2026-04-30 19:36 | -34.56371 | -58.99236 | 7689 ft | 289 kts | 69° |
| 2026-04-30 19:37 | -34.55764 | -58.96914 | 7364 ft | 289 kts | 69° |
| 2026-04-30 19:37 | -34.55154 | -58.94583 | 7010 ft | 290 kts | 69° |
| 2026-04-30 19:37 | -34.54558 | -58.92291 | 6640 ft | 280 kts | 69° |
| 2026-04-30 19:37 | -34.53986 | -58.90083 | 6295 ft | 270 kts | 69° |
| 2026-04-30 19:38 | -34.53431 | -58.87947 | 5957 ft | 261 kts | 68° |
| 2026-04-30 19:38 | -34.52905 | -58.85895 | 5637 ft | 250 kts | 68° |
| 2026-04-30 19:38 | -34.52375 | -58.83899 | 5334 ft | 249 kts | 68° |
| 2026-04-30 19:38 | -34.51848 | -58.81908 | 5009 ft | 245 kts | 69° |
| 2026-04-30 19:39 | -34.51339 | -58.79968 | 4706 ft | 236 kts | 69° |
| 2026-04-30 19:39 | -34.50851 | -58.78100 | 4407 ft | 228 kts | 68° |
| 2026-04-30 19:39 | -34.50380 | -58.76298 | 4124 ft | 221 kts | 68° |
| 2026-04-30 19:39 | -34.49913 | -58.74524 | 3833 ft | 219 kts | 69° |
| 2026-04-30 19:40 | -34.49458 | -58.72793 | 3672 ft | 210 kts | 68° |
| 2026-04-30 19:40 | -34.49028 | -58.71155 | 3610 ft | 205 kts | 68° |
| 2026-04-30 19:40 | -34.48595 | -58.69517 | 3529 ft | 203 kts | 68° |
| 2026-04-30 19:40 | -34.48160 | -58.67883 | 3441 ft | 203 kts | 68° |
| 2026-04-30 19:41 | -34.47728 | -58.66254 | 3350 ft | 203 kts | 68° |
| 2026-04-30 19:41 | -34.47297 | -58.64622 | 3257 ft | 203 kts | 68° |
| 2026-04-30 19:41 | -34.46868 | -58.62995 | 3167 ft | 202 kts | 68° |
| 2026-04-30 19:41 | -34.46440 | -58.61373 | 3082 ft | 202 kts | 68° |
| 2026-04-30 19:42 | -34.46248 | -58.59702 | 3022 ft | 198 kts | 91° |
| 2026-04-30 19:42 | -34.46659 | -58.58132 | 2815 ft | 197 kts | 118° |
| 2026-04-30 19:42 | -34.47428 | -58.56763 | 2571 ft | 196 kts | 122° |
| 2026-04-30 19:42 | -34.48188 | -58.55417 | 2359 ft | 190 kts | 121° |
| 2026-04-30 19:43 | -34.48927 | -58.54102 | 2141 ft | 186 kts | 121° |
| 2026-04-30 19:43 | -34.49647 | -58.52815 | 1964 ft | 183 kts | 119° |
| 2026-04-30 19:43 | -34.50352 | -58.51549 | 1784 ft | 179 kts | 121° |
| 2026-04-30 19:44 | -34.51722 | -58.49144 | 1450 ft | 161 kts | 122° |
| 2026-04-30 19:44 | -34.52349 | -58.48055 | 1242 ft | 155 kts | 120° |
| 2026-04-30 19:44 | -34.52927 | -58.46979 | 937 ft | 149 kts | 120° |
| 2026-04-30 19:44 | -34.53494 | -58.45942 | 751 ft | 146 kts | 121° |
| 2026-04-30 19:45 | -34.54057 | -58.44927 | 498 ft | 143 kts | 123° |
| 2026-04-30 19:45 | -34.54606 | -58.43947 | 321 ft | 140 kts | 123° |
| 2026-04-30 19:45 | -34.55147 | -58.42979 | 146 ft | 137 kts | 122° |
| 2026-04-30 19:45 | -34.55665 | -58.42038 | 28 ft | 122 kts | 123° |
| 2026-04-30 19:46 | -34.55979 | -58.41475 | 28 ft | 44 kts | 124° |
| 2026-04-30 19:46 | -34.56145 | -58.41178 | 28 ft | 39 kts | 124° |
| 2026-04-30 19:46 | -34.56175 | -58.41017 | 27 ft | 8 kts | 52° |
| 2026-04-30 19:46 | -34.56136 | -58.40962 | 27 ft | 6 kts | 355° |
| 2026-04-30 19:47 | -34.56127 | -58.40971 | 27 ft | 0 kts | 320° |
| 2026-04-30 19:47 | -34.56125 | -58.40973 | 27 ft | 1 kts | 320° |
| 2026-04-30 19:47 | -34.56083 | -58.41037 | 27 ft | 14 kts | 307° |
| 2026-04-30 19:47 | -34.56009 | -58.41160 | 27 ft | 21 kts | 306° |
| 2026-04-30 19:48 | -34.55934 | -58.41282 | 27 ft | 16 kts | 308° |
| 2026-04-30 19:48 | -34.55852 | -58.41272 | 27 ft | 10 kts | 358° |
| 2026-04-30 19:48 | -34.55810 | -58.41328 | 27 ft | 9 kts | 302° |
| 2026-04-30 19:48 | -34.55773 | -58.41396 | 27 ft | 10 kts | 303° |
| 2026-04-30 19:49 | -34.55740 | -58.41467 | 27 ft | 10 kts | 298° |
| 2026-04-30 19:49 | -34.55694 | -58.41485 | 27 ft | 3 kts | 13° |
| 2026-04-30 19:49 | -34.55687 | -58.41483 | 27 ft | 0 kts | 13° |
| 2026-04-30 19:56 | -34.55687 | -58.41484 | 27 ft | 0 kts | 13° |
| 2026-04-30 19:56 | -34.55687 | -58.41483 | 27 ft | 0 kts | 13° |
| 2026-04-30 19:56 | -34.55687 | -58.41484 | 27 ft | 0 kts | 13° |